createdAt,value
2023-06-11T00:01:43.889Z,4.07
2023-06-11T00:03:53.487Z,4.40
2023-06-11T00:05:55.138Z,4.72
2023-06-11T00:08:01.423Z,4.10
2023-06-11T00:10:04.497Z,4.43
2023-06-11T00:12:06.662Z,4.00
2023-06-11T00:14:09.767Z,4.35
2023-06-11T00:16:14.100Z,4.65
2023-06-11T00:18:18.005Z,4.05
2023-06-11T00:20:19.593Z,4.53
2023-06-11T00:22:21.082Z,3.95
2023-06-11T00:24:22.709Z,3.65
2023-06-11T00:26:24.203Z,3.85
2023-06-11T00:28:25.771Z,4.50
2023-06-11T00:30:27.276Z,4.43
2023-06-11T00:32:28.879Z,4.07
2023-06-11T00:34:30.429Z,3.97
2023-06-11T00:36:33.682Z,4.10
2023-06-11T00:38:35.436Z,4.10
2023-06-11T00:40:36.997Z,5.35
2023-06-11T00:42:39.245Z,5.00
2023-06-11T00:44:41.726Z,4.20
2023-06-11T00:46:43.736Z,3.80
2023-06-11T00:48:45.628Z,3.75
2023-06-11T00:50:52.003Z,3.83
2023-06-11T00:52:53.565Z,3.75
2023-06-11T00:54:58.654Z,3.78
2023-06-11T00:57:01.162Z,3.65
2023-06-11T00:59:02.720Z,3.72
2023-06-11T01:01:06.717Z,3.95
2023-06-11T01:03:12.387Z,3.75
2023-06-11T01:05:18.879Z,3.10
2023-06-11T01:07:23.717Z,3.25
2023-06-11T01:09:26.321Z,3.42
2023-06-11T01:11:28.576Z,3.30
2023-06-11T01:13:30.168Z,3.47
2023-06-11T01:15:31.678Z,3.60
2023-06-11T01:17:45.894Z,3.45
2023-06-11T01:19:59.679Z,3.47
2023-06-11T01:22:55.298Z,3.40
2023-06-11T01:25:12.400Z,3.15
2023-06-11T01:27:28.960Z,3.28
2023-06-11T01:29:30.803Z,3.58
2023-06-11T01:31:35.684Z,3.40
2023-06-11T01:33:37.406Z,3.25
2023-06-11T01:35:40.281Z,2.58
2023-06-11T01:37:46.555Z,2.75
2023-06-11T01:39:48.570Z,3.45
2023-06-11T01:41:50.256Z,3.25
2023-06-11T01:43:51.795Z,2.70
2023-06-11T01:45:53.295Z,3.17
2023-06-11T01:47:55.172Z,3.00
2023-06-11T01:49:56.707Z,3.05
2023-06-11T01:51:58.230Z,2.47
2023-06-11T01:54:00.471Z,2.33
2023-06-11T01:56:02.064Z,2.60
2023-06-11T01:58:03.558Z,2.63
2023-06-11T02:00:07.936Z,3.08
2023-06-11T02:02:09.571Z,2.90
2023-06-11T02:04:11.603Z,2.95
2023-06-11T02:06:13.168Z,3.00
2023-06-11T02:08:14.671Z,2.50
2023-06-11T02:10:16.225Z,2.42
2023-06-11T02:12:17.706Z,2.67
2023-06-11T02:14:19.258Z,3.47
2023-06-11T02:16:20.793Z,3.20
2023-06-11T02:18:22.275Z,2.92
2023-06-11T02:20:23.799Z,2.78
2023-06-11T02:22:25.295Z,2.45
2023-06-11T02:24:27.355Z,2.33
2023-06-11T02:26:28.858Z,2.60
2023-06-11T02:28:30.351Z,2.40
2023-06-11T02:30:31.838Z,2.53
2023-06-11T02:32:33.403Z,2.92
2023-06-11T02:34:34.973Z,2.30
2023-06-11T02:36:37.556Z,2.70
2023-06-11T02:38:39.166Z,2.30
2023-06-11T02:40:40.650Z,2.47
2023-06-11T02:42:42.219Z,2.38
2023-06-11T02:44:43.744Z,2.50
2023-06-11T02:46:45.292Z,2.63
2023-06-11T02:48:46.826Z,2.90
2023-06-11T02:50:48.303Z,2.67
2023-06-11T02:52:49.822Z,2.30
2023-06-11T02:54:51.387Z,2.92
2023-06-11T02:56:52.935Z,3.03
2023-06-11T02:58:54.498Z,2.80
2023-06-11T03:00:55.995Z,2.63
2023-06-11T03:02:57.520Z,2.78
2023-06-11T03:04:59.111Z,2.08
2023-06-11T03:07:00.674Z,2.80
2023-06-11T03:09:02.162Z,2.38
2023-06-11T03:11:03.658Z,2.88
2023-06-11T03:13:05.361Z,2.42
2023-06-11T03:15:07.614Z,2.80
2023-06-11T03:17:09.192Z,2.28
2023-06-11T03:19:10.923Z,2.70
2023-06-11T03:21:12.659Z,3.08
2023-06-11T03:23:15.642Z,2.55
2023-06-11T03:25:17.380Z,2.97
2023-06-11T03:27:18.865Z,3.13
2023-06-11T03:29:20.375Z,2.63
2023-06-11T03:31:22.124Z,2.80
2023-06-11T03:33:23.648Z,2.50
2023-06-11T03:35:25.295Z,2.53
2023-06-11T03:37:26.819Z,3.00
2023-06-11T03:39:28.351Z,3.55
2023-06-11T03:41:29.883Z,3.30
2023-06-11T03:43:31.393Z,3.00
2023-06-11T03:45:32.880Z,2.75
2023-06-11T03:47:34.433Z,2.55
2023-06-11T03:49:36.091Z,2.90
2023-06-11T03:51:38.063Z,2.88
2023-06-11T03:53:39.601Z,2.72
2023-06-11T03:55:41.147Z,2.60
2023-06-11T03:57:43.187Z,2.30
2023-06-11T03:59:44.695Z,2.70
2023-06-11T04:01:46.267Z,2.97
2023-06-11T04:03:47.890Z,3.00
2023-06-11T04:05:49.553Z,2.75
2023-06-11T04:07:51.078Z,2.40
2023-06-11T04:09:52.570Z,2.72
2023-06-11T04:11:54.068Z,2.65
2023-06-11T04:13:55.623Z,2.80
2023-06-11T04:15:57.145Z,2.63
2023-06-11T04:17:58.932Z,2.40
2023-06-11T04:20:00.597Z,2.45
2023-06-11T04:22:02.280Z,3.05
2023-06-11T04:24:07.441Z,2.50
2023-06-11T04:26:11.344Z,2.53
2023-06-11T04:28:17.267Z,2.47
2023-06-11T04:30:19.246Z,2.10
2023-06-11T04:32:22.343Z,2.20
2023-06-11T04:34:30.269Z,2.50
2023-06-11T04:36:31.795Z,2.45
2023-06-11T04:38:33.302Z,2.33
2023-06-11T04:40:35.135Z,2.47
2023-06-11T04:42:41.776Z,2.53
2023-06-11T04:44:43.304Z,2.80
2023-06-11T04:46:44.848Z,2.72
2023-06-11T04:48:49.594Z,2.65
2023-06-11T04:50:52.587Z,2.20
2023-06-11T04:52:54.339Z,2.15
2023-06-11T04:54:56.521Z,2.20
2023-06-11T04:56:58.019Z,2.25
2023-06-11T04:58:59.633Z,2.20
2023-06-11T05:01:01.276Z,2.05
2023-06-11T05:03:03.281Z,1.80
2023-06-11T05:05:08.358Z,1.95
2023-06-11T05:07:10.006Z,2.40
2023-06-11T05:09:15.071Z,2.20
2023-06-11T05:11:16.665Z,2.35
2023-06-11T05:13:23.422Z,1.90
2023-06-11T05:15:24.930Z,1.90
2023-06-11T05:17:26.432Z,2.10
2023-06-11T05:19:27.946Z,1.92
2023-06-11T05:21:29.643Z,2.00
2023-06-11T05:23:32.801Z,2.75
2023-06-11T05:25:34.371Z,1.90
2023-06-11T05:27:35.875Z,1.85
2023-06-11T05:29:39.092Z,1.95
2023-06-11T05:31:40.902Z,2.13
2023-06-11T05:33:42.583Z,2.22
2023-06-11T05:35:44.656Z,2.20
2023-06-11T05:37:46.348Z,2.25
2023-06-11T05:39:47.885Z,2.47
2023-06-11T05:41:49.411Z,1.77
2023-06-11T05:43:51.545Z,2.10
2023-06-11T05:45:53.563Z,2.10
2023-06-11T05:47:55.138Z,2.35
2023-06-11T05:49:56.786Z,2.55
2023-06-11T05:51:58.288Z,2.78
2023-06-11T05:54:02.592Z,2.33
2023-06-11T05:56:07.092Z,2.22
2023-06-11T05:58:08.653Z,2.58
2023-06-11T06:00:17.009Z,2.08
2023-06-11T06:02:19.206Z,2.50
2023-06-11T06:04:21.198Z,2.28
2023-06-11T06:06:22.904Z,2.20
2023-06-11T06:08:24.467Z,2.05
2023-06-11T06:10:26.094Z,1.95
2023-06-11T06:12:27.581Z,2.22
2023-06-11T06:14:29.081Z,2.47
2023-06-11T06:16:32.550Z,2.20
2023-06-11T06:18:35.648Z,2.53
2023-06-11T06:20:37.291Z,2.55
2023-06-11T06:22:39.317Z,2.70
2023-06-11T06:24:40.797Z,2.42
2023-06-11T06:26:42.479Z,2.47
2023-06-11T06:28:43.972Z,2.70
2023-06-11T06:30:45.480Z,2.67
2023-06-11T06:32:47.078Z,2.40
2023-06-11T06:34:48.568Z,2.85
2023-06-11T06:36:50.256Z,2.45
2023-06-11T06:38:51.759Z,2.30
2023-06-11T06:40:53.379Z,2.97
2023-06-11T06:42:54.958Z,2.60
2023-06-11T06:44:56.478Z,2.83
2023-06-11T06:46:58.012Z,2.78
2023-06-11T06:48:59.819Z,2.88
2023-06-11T06:51:01.650Z,2.70
2023-06-11T06:53:03.152Z,3.03
2023-06-11T06:55:05.728Z,2.78
2023-06-11T06:57:11.599Z,3.03
2023-06-11T06:59:13.218Z,2.70
2023-06-11T07:01:14.810Z,3.50
2023-06-11T07:03:16.486Z,3.47
2023-06-11T07:05:18.623Z,3.10
2023-06-11T07:07:20.341Z,2.90
2023-06-11T07:09:22.156Z,3.22
2023-06-11T07:11:23.818Z,3.17
2023-06-11T07:13:25.799Z,3.10
2023-06-11T07:15:27.467Z,2.92
2023-06-11T07:17:29.420Z,3.22
2023-06-11T07:19:30.988Z,3.25
2023-06-11T07:21:33.584Z,3.15
2023-06-11T07:23:35.172Z,3.33
2023-06-11T07:25:38.979Z,3.20
2023-06-11T07:27:41.593Z,3.53
2023-06-11T07:29:43.240Z,3.47
2023-06-11T07:31:44.844Z,3.47
2023-06-11T08:04:33.644Z,3.63
2023-06-11T08:06:36.553Z,3.47
2023-06-11T08:08:38.900Z,3.60
2023-06-11T08:10:41.082Z,3.63
2023-06-11T08:12:42.739Z,3.58
2023-06-11T08:14:44.620Z,3.47
2023-06-11T08:16:47.085Z,3.70
2023-06-11T08:18:48.739Z,4.65
2023-06-11T08:20:50.560Z,3.38
2023-06-11T08:22:52.204Z,3.80
2023-06-11T08:24:54.092Z,4.00
2023-06-11T08:26:55.710Z,3.85
2023-06-11T08:28:57.534Z,3.70
2023-06-11T08:30:59.520Z,4.18
2023-06-11T08:33:01.465Z,4.10
2023-06-11T08:35:03.191Z,4.00
2023-06-11T08:37:05.310Z,3.40
2023-06-11T08:39:06.871Z,3.92
2023-06-11T08:41:08.857Z,4.22
2023-06-11T08:43:11.368Z,3.85
2023-06-11T08:45:13.105Z,4.00
2023-06-11T08:47:15.760Z,3.28
2023-06-11T08:49:22.780Z,3.80
2023-06-11T08:51:27.648Z,3.67
2023-06-11T08:53:29.471Z,4.13
2023-06-11T08:55:31.167Z,4.03
2023-06-11T08:57:32.732Z,3.28
2023-06-11T08:59:34.631Z,4.05
2023-06-11T09:01:36.598Z,4.07
2023-06-11T09:03:39.132Z,3.90
2023-06-11T09:05:41.195Z,4.45
2023-06-11T09:07:50.740Z,3.60
2023-06-11T09:10:10.145Z,3.53
2023-06-11T09:12:12.782Z,3.50
2023-06-11T09:14:14.931Z,4.13
2023-06-11T09:16:16.762Z,4.05
2023-06-11T09:18:28.794Z,4.10
2023-06-11T09:20:32.778Z,3.67
2023-06-11T09:22:37.730Z,4.18
2023-06-11T09:24:39.711Z,3.55
2023-06-11T09:26:50.194Z,4.07
2023-06-11T09:28:54.665Z,4.30
2023-06-11T09:30:57.951Z,3.40
2023-06-11T09:32:59.542Z,4.05
2023-06-11T09:35:01.756Z,3.83
2023-06-11T09:37:03.723Z,3.67
2023-06-11T09:39:05.292Z,3.63
2023-06-11T09:41:09.945Z,3.65
2023-06-11T09:43:11.581Z,3.40
2023-06-11T09:45:20.372Z,4.32
2023-06-11T09:47:22.188Z,4.85
2023-06-11T09:49:25.129Z,5.30
2023-06-11T09:51:27.233Z,4.63
2023-06-11T09:53:29.020Z,4.15
2023-06-11T09:55:36.347Z,3.80
2023-06-11T09:57:42.010Z,3.50
2023-06-11T09:59:44.057Z,3.75
2023-06-11T10:01:48.981Z,3.85
2023-06-11T10:03:50.813Z,3.33
2023-06-11T10:05:53.462Z,3.80
2023-06-11T10:08:17.235Z,3.80
2023-06-11T10:10:22.296Z,4.07
2023-06-11T10:12:23.962Z,3.95
2023-06-11T10:14:25.664Z,3.85
2023-06-11T10:16:28.806Z,3.28
2023-06-11T10:18:31.683Z,3.13
2023-06-11T10:20:36.440Z,3.67
2023-06-11T10:22:38.077Z,3.70
2023-06-11T10:24:39.984Z,3.30
2023-06-11T10:26:41.559Z,3.72
2023-06-11T10:28:45.857Z,3.50
2023-06-11T10:30:57.140Z,3.60
2023-06-11T10:32:59.571Z,4.43
2023-06-11T10:35:07.926Z,3.92
2023-06-11T10:39:22.107Z,3.90
2023-06-11T10:41:31.013Z,3.60
2023-06-11T10:43:33.772Z,3.75
2023-06-11T10:45:37.453Z,4.28
2023-06-11T10:47:53.060Z,3.47
2023-06-11T10:50:08.786Z,3.35
2023-06-11T10:52:10.656Z,3.25
2023-06-11T10:54:12.131Z,3.83
2023-06-11T10:56:14.440Z,3.83
2023-06-11T10:58:22.882Z,3.53
2023-06-11T11:00:25.212Z,3.20
2023-06-11T11:02:27.944Z,3.50
2023-06-11T11:04:29.490Z,3.33
2023-06-11T11:06:31.335Z,3.20
2023-06-11T11:08:32.878Z,3.40
2023-06-11T11:10:34.364Z,3.75
2023-06-11T11:12:41.348Z,3.67
2023-06-11T11:14:42.980Z,3.35
2023-06-11T11:16:48.371Z,3.08
2023-06-11T11:18:50.843Z,3.30
2023-06-11T11:20:55.897Z,2.70
2023-06-11T11:22:58.068Z,2.85
2023-06-11T11:25:01.575Z,3.00
2023-06-11T11:27:03.116Z,2.85
2023-06-11T11:29:04.607Z,2.65
2023-06-11T11:31:06.451Z,3.25
2023-06-11T11:33:08.426Z,3.05
2023-06-11T11:35:12.767Z,3.13
2023-06-11T11:37:14.340Z,2.95
2023-06-11T11:39:15.976Z,2.72
2023-06-11T11:41:22.586Z,2.90
2023-06-11T11:43:24.520Z,3.33
2023-06-11T11:45:34.398Z,2.70
2023-06-11T11:47:36.631Z,2.92
2023-06-11T11:49:38.594Z,2.60
2023-06-11T11:51:46.813Z,2.53
2023-06-11T11:53:49.001Z,3.10
2023-06-11T11:56:04.490Z,3.40
2023-06-11T11:58:09.262Z,3.78
2023-06-11T12:00:11.426Z,2.88
2023-06-11T12:02:13.066Z,3.05
2023-06-11T12:04:14.565Z,2.42
2023-06-11T12:06:24.621Z,2.88
2023-06-11T12:08:28.133Z,2.67
2023-06-11T12:10:29.638Z,2.83
2023-06-11T12:12:31.098Z,2.90
2023-06-11T12:14:32.992Z,2.70
2023-06-11T12:16:35.292Z,2.63
2023-06-11T12:18:36.778Z,3.53
2023-06-11T12:20:38.296Z,2.95
2023-06-11T12:22:40.169Z,2.72
2023-06-11T12:24:41.776Z,3.17
2023-06-11T12:26:47.606Z,2.45
2023-06-11T12:28:50.893Z,2.60
2023-06-11T12:30:52.675Z,2.67
2023-06-11T12:32:54.190Z,2.97
2023-06-11T12:34:55.680Z,2.78
2023-06-11T12:36:57.215Z,2.60
2023-06-11T12:38:58.707Z,2.75
2023-06-11T12:41:00.552Z,2.95
2023-06-11T12:43:02.077Z,2.85
2023-06-11T12:45:04.647Z,3.05
2023-06-11T12:47:06.731Z,2.63
2023-06-11T12:49:08.195Z,2.78
2023-06-11T12:51:09.806Z,2.90
2023-06-11T12:53:11.374Z,2.83
2023-06-11T12:55:14.649Z,3.10
2023-06-11T12:57:16.442Z,3.00
2023-06-11T12:59:18.747Z,2.95
2023-06-11T13:01:20.636Z,2.63
2023-06-11T13:03:22.233Z,2.90
2023-06-11T13:05:23.758Z,3.03
2023-06-11T13:07:25.340Z,2.90
2023-06-11T13:09:26.825Z,3.90
2023-06-11T13:11:28.467Z,3.15
2023-06-11T13:13:30.568Z,2.92
2023-06-11T13:15:32.187Z,3.13
2023-06-11T13:17:33.721Z,2.97
2023-06-11T13:19:35.417Z,3.08
2023-06-11T13:21:37.255Z,3.03
2023-06-11T13:23:38.795Z,2.60
2023-06-11T13:25:40.275Z,2.60
2023-06-11T13:27:42.269Z,2.90
2023-06-11T13:29:43.860Z,3.35
2023-06-11T13:31:45.483Z,2.38
2023-06-11T13:33:47.033Z,2.92
2023-06-11T13:35:49.872Z,2.90
2023-06-11T13:37:51.399Z,2.65
2023-06-11T13:39:53.021Z,3.05
2023-06-11T13:41:54.556Z,2.53
2023-06-11T13:43:56.120Z,2.83
2023-06-11T13:45:59.555Z,2.65
2023-06-11T13:48:14.851Z,2.80
2023-06-11T13:50:16.486Z,2.78
2023-06-11T13:52:19.516Z,2.67
2023-06-11T13:54:21.020Z,2.88
2023-06-11T13:56:22.773Z,2.45
2023-06-11T13:58:26.024Z,2.60
2023-06-11T14:00:28.116Z,2.75
2023-06-11T14:02:29.723Z,2.60
2023-06-11T14:04:31.366Z,2.72
2023-06-11T14:06:33.548Z,2.88
2023-06-11T14:08:35.241Z,2.63
2023-06-11T14:10:36.753Z,3.10
2023-06-11T14:12:38.283Z,2.72
2023-06-11T14:14:39.801Z,3.15
2023-06-11T14:16:41.883Z,2.47
2023-06-11T14:18:43.449Z,2.85
2023-06-11T14:20:44.974Z,3.10
2023-06-11T14:22:46.956Z,2.88
2023-06-11T14:24:48.704Z,3.22
2023-06-11T14:26:52.262Z,2.78
2023-06-11T14:28:54.043Z,2.72
2023-06-11T14:30:55.644Z,3.10
2023-06-11T14:32:57.260Z,2.72
2023-06-11T14:34:59.367Z,3.30
2023-06-11T14:37:01.104Z,2.88
2023-06-11T14:39:02.631Z,3.50
2023-06-11T14:41:04.188Z,3.30
2023-06-11T14:43:05.729Z,2.67
2023-06-11T14:45:07.950Z,2.70
2023-06-11T14:47:09.561Z,3.10
2023-06-11T14:49:12.037Z,2.90
2023-06-11T14:51:13.612Z,2.90
2023-06-11T14:53:15.200Z,2.78
2023-06-11T14:55:16.967Z,3.25
2023-06-11T14:57:21.085Z,2.70
2023-06-11T14:59:23.983Z,2.60
2023-06-11T15:01:25.583Z,2.88
2023-06-11T15:03:27.214Z,2.80
2023-06-11T15:05:28.768Z,2.70
2023-06-11T15:07:35.351Z,2.60
2023-06-11T15:09:38.400Z,2.92
2023-06-11T15:11:39.895Z,2.88
2023-06-11T15:13:42.025Z,2.60
2023-06-11T15:15:43.532Z,2.95
2023-06-11T15:17:45.049Z,3.00
2023-06-11T15:19:46.647Z,3.03
2023-06-11T15:21:48.845Z,2.75
2023-06-11T15:23:50.458Z,3.03
2023-06-11T15:25:52.919Z,3.13
2023-06-11T15:27:54.663Z,3.60
2023-06-11T15:29:56.238Z,3.42
2023-06-11T15:31:59.508Z,3.08
2023-06-11T15:34:01.022Z,3.10
2023-06-11T15:36:02.662Z,2.90
2023-06-11T15:38:05.470Z,3.03
2023-06-11T15:40:07.652Z,3.95
2023-06-11T15:42:09.263Z,3.88
2023-06-11T15:44:10.799Z,3.50
2023-06-11T15:46:12.368Z,3.30
2023-06-11T15:48:13.939Z,3.75
2023-06-11T15:50:15.832Z,4.30
2023-06-11T15:52:17.592Z,2.50
2023-06-11T15:54:19.296Z,2.80
2023-06-11T15:56:20.866Z,3.10
2023-06-11T15:58:22.364Z,3.00
2023-06-11T16:00:25.083Z,5.45
2023-06-11T16:02:26.696Z,3.38
2023-06-11T16:04:28.345Z,2.75
2023-06-11T16:06:29.882Z,2.88
2023-06-11T16:08:31.470Z,2.80
2023-06-11T16:10:33.127Z,2.80
2023-06-11T16:12:34.719Z,2.50
2023-06-11T16:14:36.443Z,2.55
2023-06-11T16:16:38.660Z,3.13
2023-06-11T16:18:40.218Z,2.85
2023-06-11T16:20:41.845Z,2.88
2023-06-11T16:22:43.440Z,3.58
2023-06-11T16:24:44.959Z,2.88
2023-06-11T16:26:47.242Z,2.70
2023-06-11T16:28:50.619Z,2.90
2023-06-11T16:30:52.141Z,2.70
2023-06-11T16:32:53.751Z,2.90
2023-06-11T16:34:55.536Z,2.75
2023-06-11T16:36:57.134Z,2.75
2023-06-11T16:39:09.422Z,2.88
2023-06-11T16:41:18.577Z,2.83
2023-06-11T16:43:20.063Z,2.70
2023-06-11T16:45:21.647Z,2.50
2023-06-11T16:47:24.332Z,2.85
2023-06-11T16:49:26.331Z,2.80
2023-06-11T16:51:29.044Z,2.90
2023-06-11T16:53:30.543Z,2.20
2023-06-11T16:55:32.225Z,2.50
2023-06-11T16:57:33.955Z,2.38
2023-06-11T16:59:35.434Z,2.30
2023-06-11T17:01:36.973Z,2.40
2023-06-11T17:03:38.627Z,2.10
2023-06-11T17:05:40.482Z,2.88
2023-06-11T17:07:45.234Z,3.40
2023-06-11T17:09:46.829Z,2.95
2023-06-11T17:11:48.323Z,2.70
2023-06-11T17:13:50.426Z,3.03
2023-06-11T17:15:52.082Z,2.42
2023-06-11T17:17:54.506Z,2.58
2023-06-11T17:19:56.261Z,2.00
2023-06-11T17:21:57.781Z,3.55
2023-06-11T17:23:59.322Z,2.30
2023-06-11T17:26:00.996Z,2.00
2023-06-11T17:28:03.190Z,2.42
2023-06-11T17:30:06.256Z,2.33
2023-06-11T17:32:08.316Z,2.10
2023-06-11T17:34:09.901Z,2.20
2023-06-11T17:36:11.480Z,2.28
2023-06-11T17:38:13.006Z,2.13
2023-06-11T17:40:16.875Z,2.13
2023-06-11T17:42:19.263Z,2.30
2023-06-11T17:44:20.834Z,2.28
2023-06-11T17:46:22.445Z,2.38
2023-06-11T17:48:24.033Z,2.30
2023-06-11T17:50:25.907Z,2.20
2023-06-11T17:52:27.436Z,1.90
2023-06-11T17:54:28.944Z,1.90
2023-06-11T17:56:30.643Z,2.10
2023-06-11T17:58:32.210Z,2.42
2023-06-11T18:00:33.855Z,2.42
2023-06-11T18:02:36.452Z,1.90
2023-06-11T18:04:37.988Z,2.47
2023-06-11T18:06:39.562Z,2.20
2023-06-11T18:08:41.105Z,2.22
2023-06-11T18:10:42.634Z,2.10
2023-06-11T18:12:45.411Z,1.95
2023-06-11T18:14:47.372Z,2.35
2023-06-11T18:16:49.697Z,2.33
2023-06-11T18:18:51.576Z,2.45
2023-06-11T18:20:53.251Z,2.47
2023-06-11T18:22:55.085Z,2.10
2023-06-11T18:24:56.578Z,2.30
2023-06-11T18:26:58.079Z,2.10
2023-06-11T18:28:59.630Z,2.05
2023-06-11T18:31:01.447Z,2.20
2023-06-11T18:33:03.195Z,2.47
2023-06-11T18:35:05.398Z,2.13
2023-06-11T18:37:06.883Z,1.90
2023-06-11T18:39:08.398Z,3.40
2023-06-11T18:41:10.102Z,2.60
2023-06-11T18:43:11.783Z,2.30
2023-06-11T18:45:13.433Z,2.30
2023-06-11T18:47:15.257Z,2.08
2023-06-11T18:49:16.827Z,1.95
2023-06-11T18:51:18.565Z,2.60
2023-06-11T18:53:20.091Z,2.05
2023-06-11T18:55:22.804Z,1.98
2023-06-11T18:57:27.518Z,2.10
2023-06-11T18:59:29.712Z,1.65
2023-06-11T19:01:31.398Z,2.10
2023-06-11T19:03:35.317Z,1.98
2023-06-11T19:05:42.323Z,2.20
2023-06-11T19:07:44.017Z,2.45
2023-06-11T19:09:45.655Z,2.22
2023-06-11T19:11:48.947Z,2.05
2023-06-11T19:13:51.393Z,1.80
2023-06-11T19:15:54.939Z,2.28
2023-06-11T19:17:56.481Z,2.00
2023-06-11T19:19:58.115Z,2.00
2023-06-11T19:21:59.614Z,2.28
2023-06-11T19:24:01.240Z,1.67
2023-06-11T19:26:03.035Z,1.83
2023-06-11T19:28:04.713Z,1.98
2023-06-11T19:30:06.900Z,2.13
2023-06-11T19:32:08.770Z,2.05
2023-06-11T19:34:10.305Z,2.20
2023-06-11T19:36:12.114Z,2.17
2023-06-11T19:38:13.894Z,2.10
2023-06-11T19:40:16.083Z,1.92
2023-06-11T19:42:17.619Z,2.30
2023-06-11T19:44:19.222Z,1.83
2023-06-11T19:46:21.479Z,2.20
2023-06-11T19:48:24.259Z,2.10
2023-06-11T19:50:27.380Z,1.98
2023-06-11T19:52:28.989Z,1.80
2023-06-11T19:54:45.924Z,2.05
2023-06-11T19:56:51.816Z,2.38
2023-06-11T19:58:54.392Z,2.35
2023-06-11T20:00:56.295Z,2.38
2023-06-11T20:02:57.920Z,2.10
2023-06-11T20:04:59.530Z,1.70
2023-06-11T20:07:01.014Z,1.60
2023-06-11T20:09:04.473Z,2.28
2023-06-11T20:11:11.420Z,1.90
2023-06-11T20:13:13.162Z,1.75
2023-06-11T20:15:15.038Z,2.08
2023-06-11T20:17:16.586Z,1.80
2023-06-11T20:19:18.514Z,1.85
2023-06-11T20:21:20.044Z,1.52
2023-06-11T20:23:21.526Z,2.13
2023-06-11T20:25:23.083Z,1.60
2023-06-11T20:27:25.242Z,1.80
2023-06-11T20:29:26.817Z,1.73
2023-06-11T20:31:28.467Z,2.13
2023-06-11T20:33:35.620Z,1.90
2023-06-11T20:35:37.105Z,1.77
2023-06-11T20:37:38.663Z,1.73
2023-06-11T20:39:40.408Z,1.67
2023-06-11T20:41:41.908Z,1.77
2023-06-11T20:43:43.427Z,1.80
2023-06-11T20:45:54.569Z,1.92
2023-06-11T20:47:59.645Z,1.95
2023-06-11T20:50:01.388Z,2.10
2023-06-11T20:52:02.993Z,1.88
2023-06-11T20:54:04.704Z,1.80
2023-06-11T20:56:06.444Z,1.90
2023-06-11T20:58:07.964Z,1.90
2023-06-11T21:00:10.319Z,1.80
2023-06-11T21:02:12.138Z,1.80
2023-06-11T21:04:13.730Z,1.92
2023-06-11T21:06:15.483Z,1.80
2023-06-11T21:08:18.916Z,2.00
2023-06-11T21:10:20.612Z,2.17
2023-06-11T21:12:22.589Z,1.77
2023-06-11T21:14:24.309Z,1.60
2023-06-11T21:16:25.866Z,1.75
2023-06-11T21:18:27.374Z,1.80
2023-06-11T21:20:28.941Z,2.33
2023-06-11T21:22:30.433Z,1.73
2023-06-11T21:24:31.930Z,2.13
2023-06-11T21:26:33.885Z,1.80
2023-06-11T21:28:37.066Z,1.88
2023-06-11T21:30:38.713Z,1.70
2023-06-11T21:32:40.442Z,1.98
2023-06-11T21:34:42.005Z,2.03
2023-06-11T21:36:44.180Z,2.30
2023-06-11T21:38:45.808Z,4.18
2023-06-11T21:40:47.348Z,1.95
2023-06-11T21:42:48.874Z,1.70
2023-06-11T21:44:50.366Z,1.65
2023-06-11T21:46:51.954Z,1.88
2023-06-11T21:48:53.520Z,2.15
2023-06-11T21:50:54.997Z,1.80
2023-06-11T21:52:56.731Z,1.65
2023-06-11T21:54:58.367Z,1.80
2023-06-11T21:56:59.932Z,2.03
2023-06-11T21:59:01.419Z,2.17
2023-06-11T22:01:03.013Z,2.00
2023-06-11T22:03:05.050Z,2.45
2023-06-11T22:05:07.936Z,2.05
2023-06-11T22:07:09.471Z,1.92
2023-06-11T22:09:12.332Z,2.22
2023-06-11T22:11:13.865Z,2.30
2023-06-11T22:13:16.517Z,1.75
2023-06-11T22:15:18.133Z,1.90
2023-06-11T22:17:22.757Z,2.08
2023-06-11T22:19:25.257Z,1.70
2023-06-11T22:21:26.879Z,2.00
2023-06-11T22:23:45.164Z,2.20
2023-06-11T22:25:51.032Z,2.28
2023-06-11T22:27:52.941Z,1.90
2023-06-11T22:29:54.437Z,2.42
2023-06-11T22:31:56.005Z,2.10
2023-06-11T22:33:57.933Z,1.88
2023-06-11T22:35:59.436Z,2.15
2023-06-11T22:38:00.906Z,2.28
2023-06-11T22:40:03.843Z,1.65
2023-06-11T22:42:05.808Z,2.17
2023-06-11T22:44:07.414Z,2.50
2023-06-11T22:46:08.992Z,2.03
2023-06-11T22:48:11.282Z,1.85
2023-06-11T22:50:13.196Z,7.45
2023-06-11T22:52:17.558Z,3.58
2023-06-11T22:54:19.103Z,2.10
2023-06-11T22:56:21.487Z,2.03
2023-06-11T22:58:23.329Z,2.47
2023-06-11T23:00:24.862Z,2.10
2023-06-11T23:02:26.543Z,2.05
2023-06-11T23:04:28.160Z,2.42
2023-06-11T23:06:30.353Z,2.67
2023-06-11T23:08:31.860Z,2.40
2023-06-11T23:10:33.355Z,2.15
2023-06-11T23:12:34.855Z,2.38
2023-06-11T23:14:36.316Z,2.33
2023-06-11T23:16:38.522Z,2.53
2023-06-11T23:18:41.239Z,2.33
2023-06-11T23:20:43.785Z,2.20
2023-06-11T23:22:48.006Z,2.33
2023-06-11T23:24:50.756Z,2.22
2023-06-11T23:26:53.566Z,2.42
2023-06-11T23:28:57.111Z,2.08
2023-06-11T23:30:58.661Z,2.28
2023-06-11T23:33:01.217Z,2.10
2023-06-11T23:35:03.932Z,2.17
2023-06-11T23:37:07.436Z,1.90
2023-06-11T23:39:10.614Z,1.88
2023-06-11T23:41:12.632Z,2.10
2023-06-11T23:43:14.134Z,2.42
2023-06-11T23:45:15.777Z,2.42
2023-06-11T23:47:17.338Z,2.20
2023-06-11T23:49:18.859Z,2.42
2023-06-11T23:51:21.170Z,2.05
2023-06-11T23:53:23.188Z,2.10
2023-06-11T23:55:25.025Z,2.15
2023-06-11T23:57:27.064Z,1.85
2023-06-11T23:59:28.526Z,2.25
